Time;durP1;ratioP1;P1;durP2;ratioP2;P2;SDS_P1;SDS_P2;PMS_P1;PMS_P2;Temp;Humidity;BMP_temperature;BMP_pressure;BME280_temperature;BME280_humidity;BME280_pressure;Samples;Min_cycle;Max_cycle;Signal;HPM_P1;HPM_P2
2022/12/13 00:01:14;;;;;;;35.93;18.70;;;;;;;-6.53;100.00;101101.09;5029316;28;20025;-62
2022/12/13 00:03:39;;;;;;;29.57;16.60;;;;;;;-6.54;100.00;101100.94;5027229;28;20033;-62
2022/12/13 00:06:07;;;;;;;33.03;16.47;;;;;;;-6.56;100.00;101100.78;5026466;28;20024;-62
2022/12/13 00:08:32;;;;;;;30.40;17.20;;;;;;;-6.58;100.00;101112.31;5026088;28;20462;-62
2022/12/13 00:10:59;;;;;;;31.17;17.70;;;;;;;-6.60;100.00;101106.22;5022678;28;20287;-61
2022/12/13 00:13:25;;;;;;;31.23;16.90;;;;;;;-6.60;100.00;101096.13;5024732;28;20040;-62
2022/12/13 00:16:02;;;;;;;29.53;16.57;;;;;;;-6.59;100.00;101092.91;5023049;28;20018;-62
2022/12/13 00:18:28;;;;;;;30.47;16.97;;;;;;;-6.60;100.00;101093.63;5024266;28;20478;-62
2022/12/13 00:20:53;;;;;;;31.23;16.87;;;;;;;-6.63;100.00;101085.75;5020749;28;20021;-62
2022/12/13 00:23:19;;;;;;;32.33;17.13;;;;;;;-6.67;100.00;101081.09;5022455;28;20029;-62
2022/12/13 00:25:45;;;;;;;32.13;17.13;;;;;;;-6.68;100.00;101079.31;5023630;28;20021;-62
2022/12/13 00:28:10;;;;;;;31.87;17.20;;;;;;;-6.69;100.00;101080.06;5025174;28;20549;-62
2022/12/13 00:30:36;;;;;;;34.90;17.97;;;;;;;-6.70;100.00;101081.69;5025692;28;20493;-62
2022/12/13 00:33:01;;;;;;;30.50;17.37;;;;;;;-6.71;100.00;101079.00;5026290;28;20432;-62
2022/12/13 00:35:27;;;;;;;27.13;16.07;;;;;;;-6.74;100.00;101089.66;5025713;28;20029;-62
2022/12/13 00:37:52;;;;;;;30.87;16.60;;;;;;;-6.76;100.00;101084.44;5026647;28;20138;-62
2022/12/13 00:40:17;;;;;;;31.97;17.17;;;;;;;-6.77;100.00;101087.72;5023631;28;20043;-61
2022/12/13 00:42:43;;;;;;;32.80;17.07;;;;;;;-6.78;100.00;101101.03;5025800;28;20026;-62
2022/12/13 00:45:08;;;;;;;26.83;16.50;;;;;;;-6.81;100.00;101087.22;5022872;28;20036;-62
2022/12/13 00:47:35;;;;;;;27.13;17.03;;;;;;;-6.83;100.00;101084.53;5025823;28;20076;-62
2022/12/13 00:50:00;;;;;;;31.50;16.13;;;;;;;-6.86;100.00;101084.22;5024552;28;20061;-62
2022/12/13 00:52:26;;;;;;;30.03;15.83;;;;;;;-6.87;100.00;101082.41;5024998;28;20539;-62
2022/12/13 00:54:51;;;;;;;26.20;15.07;;;;;;;-6.89;100.00;101083.91;5022604;28;20052;-62
2022/12/13 00:57:16;;;;;;;26.60;16.37;;;;;;;-6.92;100.00;101084.44;5026635;28;20017;-62
2022/12/13 00:59:42;;;;;;;22.47;15.23;;;;;;;-6.97;100.00;101074.59;5026610;28;20033;-62
2022/12/13 01:02:07;;;;;;;27.83;15.23;;;;;;;-7.00;100.00;101078.59;5014492;28;20033;-62
2022/12/13 01:04:32;;;;;;;24.57;15.23;;;;;;;-7.01;100.00;101073.38;5007403;28;20045;-62
2022/12/13 01:06:57;;;;;;;25.37;14.07;;;;;;;-7.02;100.00;101076.66;5011700;28;20083;-63
2022/12/13 01:09:26;;;;;;;28.53;16.07;;;;;;;-7.04;100.00;101084.06;5013118;28;20425;-62
2022/12/13 01:11:55;;;;;;;28.10;15.57;;;;;;;-7.06;100.00;101075.44;5017206;28;20164;-62
2022/12/13 01:14:21;;;;;;;25.33;14.93;;;;;;;-7.08;100.00;101076.88;5013762;28;20575;-62
2022/12/13 01:16:46;;;;;;;26.27;15.70;;;;;;;-7.10;100.00;101073.31;5018881;28;20033;-62
2022/12/13 01:19:11;;;;;;;26.93;15.10;;;;;;;-7.12;100.00;101077.28;5014859;28;20549;-62
2022/12/13 01:21:37;;;;;;;25.77;16.00;;;;;;;-7.15;100.00;101074.44;5019174;28;20064;-62
2022/12/13 01:24:04;;;;;;;26.60;15.43;;;;;;;-7.18;100.00;101079.16;5020011;28;20295;-62
2022/12/13 01:26:29;;;;;;;26.07;15.20;;;;;;;-7.21;100.00;101074.66;5014065;28;20033;-62
2022/12/13 01:28:55;;;;;;;28.30;15.60;;;;;;;-7.23;100.00;101064.44;5007447;28;20030;-62
2022/12/13 01:31:20;;;;;;;23.57;15.10;;;;;;;-7.24;100.00;101074.34;5007017;28;20034;-62
2022/12/13 01:33:46;;;;;;;28.67;16.07;;;;;;;-7.26;100.00;101071.66;5006875;28;20509;-62
2022/12/13 01:36:16;;;;;;;30.87;16.30;;;;;;;-7.28;100.00;101075.63;5020249;28;20229;-62
2022/12/13 01:38:42;;;;;;;32.00;15.63;;;;;;;-7.30;100.00;101074.56;5029174;28;20029;-62
2022/12/13 01:41:19;;;;;;;25.27;15.17;;;;;;;-7.31;100.00;101077.84;5029404;28;20029;-62
2022/12/13 01:43:45;;;;;;;27.97;15.37;;;;;;;-7.34;100.00;101075.00;5029267;28;20044;-62
2022/12/13 01:46:12;;;;;;;28.67;16.03;;;;;;;-7.33;100.00;101080.91;5028203;28;20511;-62
2022/12/13 01:48:43;;;;;;;30.00;15.30;;;;;;;-7.33;100.00;101083.44;5030213;28;20494;-62
2022/12/13 01:51:11;;;;;;;27.17;15.57;;;;;;;-7.37;100.00;101085.63;5029005;28;20064;-62
2022/12/13 01:53:39;;;;;;;31.13;16.07;;;;;;;-7.38;100.00;101080.44;5029559;28;20022;-61
2022/12/13 01:56:12;;;;;;;27.70;15.10;;;;;;;-7.38;100.00;101080.44;5028636;28;20025;-62
2022/12/13 01:58:39;;;;;;;28.70;16.07;;;;;;;-7.39;100.00;101083.66;5036528;28;20021;-62
2022/12/13 02:01:05;;;;;;;29.00;15.60;;;;;;;-7.40;100.00;101079.34;5031279;28;20162;-62
2022/12/13 02:03:31;;;;;;;25.70;15.57;;;;;;;-7.41;100.00;101080.09;5029222;28;20110;-62
2022/12/13 02:06:37;;;;;;;30.37;16.33;;;;;;;-7.42;100.00;101075.78;5028536;28;20030;-62
2022/12/13 02:09:05;;;;;;;27.97;16.20;;;;;;;-7.43;100.00;101076.53;4989239;28;20033;-62
2022/12/13 02:11:32;;;;;;;33.93;16.47;;;;;;;-7.44;100.00;101078.13;5029591;28;20077;-62
2022/12/13 02:13:57;;;;;;;34.53;17.93;;;;;;;-7.45;100.00;101078.88;5011565;28;20028;-62
2022/12/13 02:16:44;;;;;;;30.70;16.43;;;;;;;-7.47;100.00;101081.22;5010291;28;20022;-62
2022/12/13 02:19:31;;;;;;;29.13;15.83;;;;;;;-7.48;100.00;101074.38;5009822;28;20305;-62
2022/12/13 02:22:33;;;;;;;30.33;15.87;;;;;;;-7.48;100.00;101076.91;5012968;28;20075;-62
2022/12/13 02:25:16;;;;;;;31.77;17.30;;;;;;;-7.45;100.00;101065.38;5028459;28;20576;-61
2022/12/13 02:28:20;;;;;;;28.50;16.63;;;;;;;-7.45;100.00;101075.44;5018950;28;20029;-62
2022/12/13 02:30:51;;;;;;;30.70;16.70;;;;;;;-7.46;100.00;101072.03;4944347;28;20492;-62
2022/12/13 02:33:31;;;;;;;30.37;15.93;;;;;;;-7.45;100.00;101067.91;5023837;28;20375;-61
2022/12/13 02:36:18;;;;;;;29.60;16.47;;;;;;;-7.47;100.00;101075.28;5028270;28;20497;-62
2022/12/13 02:38:49;;;;;;;25.60;15.23;;;;;;;-7.50;100.00;101075.84;5020614;28;20401;-61
2022/12/13 02:41:14;;;;;;;;;;;;;;;-7.49;100.00;101059.13;5012793;28;20024;-62
2022/12/13 02:43:55;;;;;;;26.40;16.13;;;;;;;-7.49;100.00;101061.63;5009628;28;19909;-62
2022/12/13 02:46:23;;;;;;;28.65;15.32;;;;;;;-7.50;100.00;101068.28;5009678;28;20065;-61
2022/12/13 02:48:53;;;;;;;25.67;14.47;;;;;;;-7.51;100.00;101063.09;5022756;28;20445;-62
2022/12/13 02:51:20;;;;;;;24.17;13.73;;;;;;;-7.54;100.00;101056.13;5019681;28;20033;-62
2022/12/13 02:53:46;;;;;;;27.80;14.20;;;;;;;-7.56;100.00;101055.03;5010631;28;20410;-62
2022/12/13 02:56:13;;;;;;;26.30;15.80;;;;;;;-7.56;100.00;101055.03;5017362;28;20029;-62
2022/12/13 02:58:46;;;;;;;26.43;14.93;;;;;;;-7.56;100.00;101052.53;5030699;28;20041;-61
2022/12/13 03:01:37;;;;;;;26.47;15.73;;;;;;;-7.57;100.00;101043.16;5019754;28;20026;-62
2022/12/13 03:04:31;;;;;;;23.87;14.57;;;;;;;-7.57;100.00;101045.69;5015391;28;20017;-62
2022/12/13 03:07:09;;;;;;;23.30;14.23;;;;;;;-7.58;100.00;101048.94;5013626;28;20032;-61
2022/12/13 03:09:42;;;;;;;22.77;14.47;;;;;;;-7.60;100.00;101038.72;5019060;28;20455;-62
2022/12/13 03:15:37;;;;;;;24.03;13.63;;;;;;;-7.62;100.00;101040.16;5028040;28;20028;-61
2022/12/13 03:18:16;;;;;;;25.87;14.33;;;;;;;-7.63;100.00;101042.53;5015607;28;20022;-62
2022/12/13 03:20:53;;;;;;;25.00;13.87;;;;;;;-7.64;100.00;101044.13;5009440;28;20029;-61
2022/12/13 03:23:19;;;;;;;22.37;14.70;;;;;;;-7.65;100.00;101043.97;5009900;28;20244;-62
2022/12/13 03:25:48;;;;;;;29.23;14.17;;;;;;;-7.65;100.00;101049.00;5008693;28;20088;-62
2022/12/13 03:28:13;;;;;;;24.07;15.57;;;;;;;-7.68;100.00;101038.63;5020977;28;20025;-62
2022/12/13 03:30:39;;;;;;;24.13;14.43;;;;;;;-7.66;100.00;101049.75;5026983;28;20036;-63
2022/12/13 03:33:04;;;;;;;25.03;15.60;;;;;;;-7.67;100.00;101040.38;5025888;28;20098;-63
2022/12/13 03:35:30;;;;;;;23.17;14.80;;;;;;;-7.66;100.00;101042.19;5026915;28;20112;-62
2022/12/13 03:37:56;;;;;;;30.40;15.60;;;;;;;-7.67;100.00;101036.25;5025931;28;20036;-62
2022/12/13 03:40:21;;;;;;;24.73;15.10;;;;;;;-7.64;100.00;101045.75;5026134;28;20014;-61
2022/12/13 03:42:46;;;;;;;26.33;14.73;;;;;;;-7.62;100.00;101044.28;5026056;28;20539;-62
2022/12/13 03:45:12;;;;;;;25.30;15.30;;;;;;;-7.63;100.00;101040.00;5027221;28;20018;-62
2022/12/13 03:47:37;;;;;;;26.20;14.93;;;;;;;-7.64;100.00;101040.72;5025957;28;20035;-62
2022/12/13 03:50:03;;;;;;;24.80;15.50;;;;;;;-7.65;100.00;101031.38;5025660;28;20044;-62
2022/12/13 03:52:28;;;;;;;27.40;14.13;;;;;;;-7.64;100.00;101035.69;5026176;28;20045;-62
2022/12/13 03:54:54;;;;;;;23.67;14.70;;;;;;;-7.64;100.00;101035.69;5026372;28;20033;-62
2022/12/13 03:57:19;;;;;;;27.13;15.73;;;;;;;-7.65;100.00;101034.81;5027847;28;20489;-62
2022/12/13 03:59:44;;;;;;;25.30;15.63;;;;;;;-7.66;100.00;101032.13;5035652;28;20048;-61
2022/12/13 04:02:09;;;;;;;24.10;15.20;;;;;;;-7.68;100.00;101031.94;5021002;28;20072;-61
2022/12/13 04:04:35;;;;;;;23.27;15.07;;;;;;;-7.66;100.00;101032.13;5026226;28;20029;-62
2022/12/13 04:07:00;;;;;;;23.87;14.73;;;;;;;-7.68;100.00;101033.59;5027181;28;20085;-61
2022/12/13 04:09:25;;;;;;;25.80;13.87;;;;;;;-7.66;100.00;101034.66;5027586;28;20034;-62
2022/12/13 04:14:34;;;;;;;27.73;15.07;;;;;;;-7.70;100.00;101035.94;5008177;28;20501;-62
2022/12/13 04:17:00;;;;;;;23.83;15.17;;;;;;;-7.71;100.00;101030.00;5007645;28;20057;-62
2022/12/13 04:19:25;;;;;;;24.87;14.27;;;;;;;-7.72;100.00;101028.19;5007363;28;20032;-62
2022/12/13 04:21:52;;;;;;;25.93;15.97;;;;;;;-7.73;100.00;101026.41;5008921;28;20034;-62
2022/12/13 04:24:18;;;;;;;22.20;14.50;;;;;;;-7.74;100.00;101022.13;5016562;28;20037;-62
2022/12/13 04:26:43;;;;;;;24.87;14.63;;;;;;;-7.75;100.00;101020.31;5025416;28;20030;-62
2022/12/13 04:29:08;;;;;;;24.27;14.90;;;;;;;-7.76;100.00;101021.06;5015789;28;20044;-62
2022/12/13 04:31:34;;;;;;;27.60;16.43;;;;;;;-7.77;100.00;101010.81;5025104;28;20028;-62
2022/12/13 04:33:59;;;;;;;22.37;13.87;;;;;;;-7.77;100.00;101016.72;5026594;28;20025;-62
2022/12/13 04:36:24;;;;;;;25.87;15.33;;;;;;;-7.77;100.00;101029.31;5025518;28;20425;-62
2022/12/13 04:38:50;;;;;;;27.70;15.40;;;;;;;-7.78;100.00;101022.50;5027059;28;20020;-62
2022/12/13 04:41:18;;;;;;;22.47;14.17;;;;;;;-7.77;100.00;101018.38;5032109;28;20036;-62
2022/12/13 04:43:44;;;;;;;28.50;14.97;;;;;;;-7.79;100.00;101015.69;5037881;28;20040;-62
2022/12/13 04:46:09;;;;;;;22.90;14.67;;;;;;;-7.80;100.00;101013.88;5030597;28;20038;-62
2022/12/13 04:48:35;;;;;;;29.10;16.80;;;;;;;-7.81;100.00;101008.69;5025374;28;20176;-62
2022/12/13 04:51:00;;;;;;;25.30;14.40;;;;;;;-7.78;100.00;101012.44;5025496;28;20140;-62
2022/12/13 04:53:26;;;;;;;22.93;15.43;;;;;;;-7.77;100.00;101005.78;5025126;28;20382;-62
2022/12/13 04:55:51;;;;;;;24.50;15.70;;;;;;;-7.78;100.00;101007.41;5022794;28;20112;-62
2022/12/13 04:58:18;;;;;;;25.40;15.57;;;;;;;-7.76;100.00;101012.59;5032283;28;20017;-63
2022/12/13 05:00:43;;;;;;;25.17;15.97;;;;;;;-7.77;100.00;101013.34;5041350;28;20056;-62
2022/12/13 05:03:08;;;;;;;23.53;13.57;;;;;;;-7.79;100.00;101009.75;5026728;28;20459;-62
2022/12/13 05:05:37;;;;;;;25.83;14.60;;;;;;;-7.78;100.00;101007.41;5025235;28;20029;-62
2022/12/13 05:08:03;;;;;;;25.17;14.47;;;;;;;-7.79;100.00;101010.66;5025504;28;20021;-62
2022/12/13 05:10:28;;;;;;;25.70;15.47;;;;;;;-7.77;100.00;100998.25;5028349;28;20084;-62
2022/12/13 05:12:53;;;;;;;23.87;14.33;;;;;;;-7.78;100.00;101004.88;5031284;28;20095;-63
2022/12/13 05:15:18;;;;;;;29.30;15.60;;;;;;;-7.77;100.00;101004.16;5015906;28;20792;-62
2022/12/13 05:17:44;;;;;;;23.70;14.77;;;;;;;-7.77;100.00;100995.72;5013005;28;20030;-63
2022/12/13 05:20:09;;;;;;;27.40;15.33;;;;;;;-7.77;100.00;100999.09;5015799;28;20072;-62
2022/12/13 05:22:36;;;;;;;24.23;15.40;;;;;;;-7.78;100.00;101002.38;5021867;28;20026;-62
2022/12/13 05:25:01;;;;;;;25.50;14.33;;;;;;;-7.77;100.00;100998.25;5026081;28;20029;-63
2022/12/13 05:27:27;;;;;;;23.23;14.77;;;;;;;-7.77;100.00;100994.06;5030814;28;20080;-62
2022/12/13 05:29:55;;;;;;;21.93;14.40;;;;;;;-7.77;100.00;100998.25;5029712;28;20099;-63
2022/12/13 05:32:21;;;;;;;23.63;13.90;;;;;;;-7.78;100.00;100994.81;5026501;28;20030;-63
2022/12/13 05:34:46;;;;;;;25.93;13.77;;;;;;;-7.78;100.00;100989.78;5025358;28;20041;-62
2022/12/13 05:37:11;;;;;;;21.10;13.33;;;;;;;-7.80;100.00;100991.25;5030375;28;20086;-62
2022/12/13 05:39:36;;;;;;;24.60;14.80;;;;;;;-7.80;100.00;100987.81;5029171;28;20032;-62
2022/12/13 05:42:02;;;;;;;23.27;13.97;;;;;;;-7.81;100.00;100981.91;5024208;28;20056;-63
2022/12/13 05:44:27;;;;;;;26.40;14.37;;;;;;;-7.83;100.00;100980.84;5021764;28;20045;-62
2022/12/13 05:46:52;;;;;;;25.10;14.97;;;;;;;-7.84;100.00;100986.59;5025012;28;20078;-62
2022/12/13 05:49:18;;;;;;;25.13;15.80;;;;;;;-7.86;100.00;100983.91;5011222;28;20042;-62
2022/12/13 05:51:43;;;;;;;24.90;15.60;;;;;;;-7.86;100.00;100985.56;5013862;28;20437;-62
2022/12/13 05:54:08;;;;;;;24.60;14.73;;;;;;;-7.85;100.00;100982.28;5012914;28;20021;-62
2022/12/13 05:56:33;;;;;;;22.57;14.83;;;;;;;-7.88;100.00;100982.84;5024382;28;20448;-62
2022/12/13 05:58:59;;;;;;;27.20;15.00;;;;;;;-7.88;100.00;100980.31;5016410;28;20030;-62
2022/12/13 06:01:24;;;;;;;25.53;14.77;;;;;;;-7.89;100.00;100982.69;5013977;28;20033;-62
2022/12/13 06:03:50;;;;;;;25.67;15.27;;;;;;;-7.89;100.00;100978.56;5017254;28;20025;-63
2022/12/13 06:06:17;;;;;;;24.10;14.60;;;;;;;-7.91;100.00;100976.59;5021098;28;20029;-62
2022/12/13 06:08:42;;;;;;;21.20;13.17;;;;;;;-7.91;100.00;100979.09;5018475;28;20060;-62
2022/12/13 06:11:07;;;;;;;26.67;15.83;;;;;;;-7.93;100.00;100975.56;5025388;28;20481;-62
2022/12/13 06:13:33;;;;;;;26.13;14.27;;;;;;;-7.96;100.00;100982.03;5020872;28;20064;-62
2022/12/13 06:16:04;;;;;;;26.27;15.77;;;;;;;-7.93;100.00;100980.59;5022551;28;20478;-62
2022/12/13 06:18:31;;;;;;;25.08;15.45;;;;;;;-7.93;100.00;100985.63;5009445;28;20386;-62
2022/12/13 06:20:59;;;;;;;26.13;16.83;;;;;;;-7.95;100.00;100986.31;5008997;28;20026;-62
2022/12/13 06:23:25;;;;;;;25.57;16.30;;;;;;;-7.95;100.00;100991.34;5010085;28;20032;-62
2022/12/13 06:25:50;;;;;;;25.80;16.00;;;;;;;-7.96;100.00;100982.03;5023025;28;20026;-62
2022/12/13 06:28:16;;;;;;;26.60;15.97;;;;;;;-7.97;100.00;100987.78;5016659;28;20022;-62
2022/12/13 06:30:41;;;;;;;27.87;17.80;;;;;;;-7.96;100.00;100999.66;5016275;28;20057;-62
2022/12/13 06:33:07;;;;;;;27.87;16.47;;;;;;;-7.98;100.00;100986.00;5020258;28;20060;-62
2022/12/13 06:35:32;;;;;;;27.63;16.90;;;;;;;-7.97;100.00;100979.34;5025703;28;20072;-62
2022/12/13 06:37:57;;;;;;;29.83;17.13;;;;;;;-7.97;100.00;100985.25;5027113;28;20023;-62
2022/12/13 06:40:23;;;;;;;24.80;18.10;;;;;;;-7.97;100.00;100987.78;5029682;28;20530;-62
2022/12/13 06:42:48;;;;;;;29.70;17.53;;;;;;;-7.98;100.00;100985.09;5029275;28;20022;-62
2022/12/13 06:45:14;;;;;;;24.37;15.77;;;;;;;-7.99;100.00;100986.75;5010200;28;20048;-62
2022/12/13 06:47:39;;;;;;;26.13;16.27;;;;;;;-7.97;100.00;100992.81;5032379;28;20517;-62
2022/12/13 06:50:05;;;;;;;25.67;15.97;;;;;;;-7.95;100.00;100985.47;5030907;28;20042;-62
2022/12/13 06:52:30;;;;;;;28.97;16.43;;;;;;;-7.95;100.00;100986.31;5024084;28;20029;-62
2022/12/13 06:54:55;;;;;;;27.13;16.83;;;;;;;-7.92;100.00;100983.25;5019372;28;20045;-62
2022/12/13 06:57:21;;;;;;;26.07;15.63;;;;;;;-7.92;100.00;100982.34;5028411;28;20037;-62
2022/12/13 06:59:47;;;;;;;27.73;16.57;;;;;;;-7.92;100.00;100983.25;5017445;28;20079;-62
2022/12/13 07:02:12;;;;;;;29.23;17.50;;;;;;;-7.93;100.00;100980.59;5021380;28;20381;-62
2022/12/13 07:04:37;;;;;;;27.83;16.87;;;;;;;-7.90;100.00;100985.94;5021754;28;20032;-62
2022/12/13 07:07:02;;;;;;;31.33;17.83;;;;;;;-7.90;100.00;100985.94;5020833;28;20033;-62
2022/12/13 07:09:31;;;;;;;26.70;15.67;;;;;;;-7.91;100.00;100979.09;5021321;28;20148;-62
2022/12/13 07:11:57;;;;;;;26.07;16.40;;;;;;;-7.90;100.00;100985.94;5026750;28;20094;-62
2022/12/13 07:14:23;;;;;;;30.10;16.37;;;;;;;-7.92;100.00;100990.81;5027240;28;20025;-62
2022/12/13 07:16:48;;;;;;;26.40;16.03;;;;;;;-7.92;100.00;100990.81;5024114;28;20026;-62
2022/12/13 07:19:14;;;;;;;28.33;17.83;;;;;;;-7.93;100.00;100983.09;5020939;28;20029;-62
2022/12/13 07:21:39;;;;;;;26.13;15.57;;;;;;;-7.90;100.00;100988.47;5011059;28;20018;-62
2022/12/13 07:24:05;;;;;;;32.10;17.87;;;;;;;-7.90;100.00;100983.44;5016121;28;20053;-62
2022/12/13 07:26:30;;;;;;;28.07;16.97;;;;;;;-7.90;100.00;100980.91;5013240;28;20083;-62
2022/12/13 07:28:56;;;;;;;25.23;16.20;;;;;;;-7.90;100.00;100990.97;5007177;28;20212;-62
2022/12/13 07:31:22;;;;;;;29.80;17.23;;;;;;;-7.91;100.00;100991.69;5007136;28;20017;-62
2022/12/13 07:33:48;;;;;;;33.47;18.20;;;;;;;-7.90;100.00;100981.81;5012126;28;20670;-62
2022/12/13 07:36:17;;;;;;;30.33;17.10;;;;;;;-7.89;100.00;100978.56;5026843;28;20112;-62
2022/12/13 07:38:43;;;;;;;33.97;20.57;;;;;;;-7.89;100.00;100982.69;5021881;28;20030;-62
2022/12/13 07:41:09;;;;;;;34.73;19.37;;;;;;;-7.88;100.00;100989.53;5020694;28;20037;-62
2022/12/13 07:43:34;;;;;;;32.63;19.77;;;;;;;-7.87;100.00;100991.28;5011119;28;20394;-62
2022/12/13 07:46:02;;;;;;;35.23;19.23;;;;;;;-7.85;100.00;100997.41;5009972;28;20026;-61
2022/12/13 07:48:28;;;;;;;33.50;19.37;;;;;;;-7.84;100.00;100994.13;5011068;28;20030;-62
2022/12/13 07:50:59;;;;;;;30.90;17.47;;;;;;;-7.83;100.00;100990.91;5008615;28;20566;-62
2022/12/13 07:53:24;;;;;;;32.85;18.38;;;;;;;-7.82;100.00;100999.38;5010254;28;20284;-62
2022/12/13 07:55:50;;;;;;;35.80;20.07;;;;;;;-7.79;100.00;101004.72;5021803;28;20025;-62
2022/12/13 07:58:15;;;;;;;29.90;19.47;;;;;;;-7.78;100.00;101001.47;5010167;28;20022;-62
2022/12/13 08:00:42;;;;;;;33.23;19.53;;;;;;;-7.77;100.00;101006.66;5020542;28;20025;-61
2022/12/13 08:03:08;;;;;;;36.23;20.40;;;;;;;-7.75;100.00;101006.81;5021424;28;20022;-62
2022/12/13 08:05:35;;;;;;;39.90;21.83;;;;;;;-7.72;100.00;101003.00;5018982;28;20592;-62
2022/12/13 08:08:01;;;;;;;32.37;20.20;;;;;;;-7.70;100.00;101000.69;5016680;28;20049;-62
2022/12/13 08:10:27;;;;;;;31.30;18.90;;;;;;;-7.67;100.00;101000.09;5019052;28;20445;-62
2022/12/13 08:12:52;;;;;;;35.47;19.80;;;;;;;-7.63;100.00;101002.25;5017438;28;20026;-63
2022/12/13 08:15:18;;;;;;;34.23;21.10;;;;;;;-7.59;100.00;100999.34;5018648;28;20061;-62
2022/12/13 08:17:44;;;;;;;37.53;21.50;;;;;;;-7.56;100.00;100987.06;5018977;28;20026;-62
2022/12/13 08:20:10;;;;;;;36.40;21.07;;;;;;;-7.50;100.00;100997.78;5021849;28;20013;-61
2022/12/13 08:22:35;;;;;;;31.50;20.20;;;;;;;-7.45;100.00;100997.38;5023479;28;20029;-62
2022/12/13 08:25:01;;;;;;;34.80;20.93;;;;;;;-7.42;100.00;101002.75;5024789;28;20388;-61
2022/12/13 08:27:27;;;;;;;35.37;20.77;;;;;;;-7.40;100.00;100998.75;5021007;28;20420;-62
2022/12/13 08:29:52;;;;;;;34.83;19.97;;;;;;;-7.36;100.00;101014.34;5014293;28;20025;-62
2022/12/13 08:32:18;;;;;;;42.67;23.90;;;;;;;-7.29;100.00;101010.88;5020713;28;20160;-62
2022/12/13 08:34:44;;;;;;;38.77;21.77;;;;;;;-7.24;100.00;101007.22;5015143;28;20398;-61
2022/12/13 08:37:10;;;;;;;36.47;21.33;;;;;;;-7.18;100.00;101009.50;5020718;28;20013;-61
2022/12/13 08:39:37;;;;;;;41.40;23.53;;;;;;;-7.09;100.00;101009.59;5011865;28;20033;-61
2022/12/13 08:42:04;;;;;;;43.17;24.87;;;;;;;-7.02;100.00;101006.09;5025153;28;20074;-62
2022/12/13 08:44:30;;;;;;;39.30;24.30;;;;;;;-6.97;100.00;101004.94;5018041;28;20040;-61
2022/12/13 08:46:55;;;;;;;40.43;24.17;;;;;;;-6.90;100.00;101011.50;5018975;28;20022;-62
2022/12/13 08:49:21;;;;;;;42.87;24.87;;;;;;;-6.86;100.00;101018.66;5012740;28;20085;-61
2022/12/13 08:51:46;;;;;;;42.73;25.37;;;;;;;-6.79;100.00;101021.09;5015482;28;20025;-61
2022/12/13 08:54:12;;;;;;;42.63;24.13;;;;;;;-6.74;100.00;101014.00;5011034;28;20076;-62
2022/12/13 08:56:37;;;;;;;43.50;25.73;;;;;;;-6.68;100.00;101023.84;5012571;28;20025;-62
2022/12/13 08:59:02;;;;;;;41.57;25.20;;;;;;;-6.61;100.00;101031.31;5011306;28;20024;-62
2022/12/13 09:01:28;;;;;;;48.40;25.77;;;;;;;-6.52;100.00;101031.38;5012445;28;20042;-62
2022/12/13 09:03:55;;;;;;;47.00;29.33;;;;;;;-6.44;100.00;101037.22;5010463;28;20021;-61
2022/12/13 09:06:21;;;;;;;42.30;24.63;;;;;;;-6.35;100.00;101034.75;5009587;28;20026;-61
2022/12/13 09:08:46;;;;;;;46.93;25.93;;;;;;;-6.29;100.00;101028.72;5014819;28;20460;-61
2022/12/13 09:11:11;;;;;;;45.30;27.50;;;;;;;-6.22;100.00;101024.31;5027145;28;20029;-61
2022/12/13 09:13:38;;;;;;;42.90;26.67;;;;;;;-6.15;100.00;101025.06;5025486;28;20030;-62
2022/12/13 09:16:10;;;;;;;40.00;25.30;;;;;;;-6.07;100.00;101028.38;5026204;28;20037;-62
2022/12/13 09:18:35;;;;;;;42.03;24.07;;;;;;;-5.99;100.00;101031.63;5024874;28;20211;-62
2022/12/13 09:21:08;;;;;;;41.67;24.80;;;;;;;-5.92;100.00;101031.53;5026489;28;20032;-62
2022/12/13 09:23:34;;;;;;;40.73;24.70;;;;;;;-5.85;100.00;101037.22;5024615;28;20087;-62
2022/12/13 09:26:00;;;;;;;43.47;25.60;;;;;;;-5.80;100.00;101025.94;5024448;28;20515;-62
2022/12/13 09:28:26;;;;;;;42.20;26.23;;;;;;;-5.75;100.00;101028.91;5022381;28;20076;-62
2022/12/13 09:30:52;;;;;;;42.10;25.10;;;;;;;-5.68;100.00;101023.75;5026075;28;20029;-61
2022/12/13 09:33:17;;;;;;;39.37;25.60;;;;;;;-5.63;100.00;101021.69;5023857;28;20026;-61
2022/12/13 09:35:43;;;;;;;44.67;26.73;;;;;;;-5.56;100.00;101024.09;5025369;28;20026;-62
2022/12/13 09:38:08;;;;;;;43.80;25.70;;;;;;;-5.47;100.00;101026.66;5023208;28;20053;-62
2022/12/13 09:40:37;;;;;;;43.70;27.20;;;;;;;-5.40;100.00;101033.19;5025505;28;20158;-61
2022/12/13 09:43:04;;;;;;;43.77;26.13;;;;;;;-5.37;100.00;101031.88;5024330;28;20378;-62
2022/12/13 09:45:30;;;;;;;43.70;26.33;;;;;;;-5.32;100.00;101025.63;5025203;28;20489;-62
2022/12/13 09:47:57;;;;;;;42.87;26.07;;;;;;;-5.24;100.00;101028.03;5023612;28;20422;-62
2022/12/13 09:50:33;;;;;;;41.07;26.57;;;;;;;-5.19;100.00;101029.38;5025557;28;20494;-62
2022/12/13 09:53:00;;;;;;;44.07;27.17;;;;;;;-5.15;100.00;101018.84;5024165;28;20023;-62
2022/12/13 09:55:43;;;;;;;45.00;27.30;;;;;;;-5.10;100.00;101017.66;5025695;28;20108;-62
2022/12/13 09:58:16;;;;;;;44.30;26.60;;;;;;;-5.07;100.00;101012.88;5016872;28;20025;-61
2022/12/13 10:00:43;;;;;;;40.73;24.67;;;;;;;-5.00;100.00;101008.44;5026801;28;20025;-62
2022/12/13 10:03:13;;;;;;;44.87;26.53;;;;;;;-4.96;100.00;101005.44;5028914;28;20017;-61
2022/12/13 10:05:43;;;;;;;47.25;27.83;;;;;;;-4.88;100.00;101003.69;5027101;28;20124;-62
2022/12/13 10:08:20;;;;;;;39.90;27.03;;;;;;;-4.81;100.00;101006.06;5028116;28;20382;-62
2022/12/13 10:10:49;;;;;;;43.27;26.77;;;;;;;-4.77;100.00;101004.72;5022915;28;20080;-62
2022/12/13 10:13:23;;;;;;;44.87;26.07;;;;;;;-4.71;100.00;101002.75;5026730;28;20108;-63
2022/12/13 10:16:04;;;;;;;45.87;27.93;;;;;;;-4.63;100.00;100996.81;5022967;28;20541;-62
2022/12/13 10:18:35;;;;;;;39.63;24.17;;;;;;;-4.55;100.00;100989.06;5024733;28;20288;-62
2022/12/13 10:21:03;;;;;;;46.97;27.67;;;;;;;-4.53;100.00;100974.94;5022556;28;20029;-62
2022/12/13 10:23:29;;;;;;;45.73;26.23;;;;;;;-4.48;100.00;100984.72;5024409;28;20037;-61
2022/12/13 10:25:55;;;;;;;40.53;25.77;;;;;;;-4.44;100.00;100988.44;5029386;28;20029;-62
2022/12/13 10:28:30;;;;;;;41.10;25.57;;;;;;;-4.38;100.00;100989.03;5028672;28;20535;-61
2022/12/13 10:30:56;;;;;;;40.83;24.83;;;;;;;-4.41;100.00;100978.63;5028844;28;20025;-62
2022/12/13 10:33:34;;;;;;;39.47;25.47;;;;;;;-4.37;100.00;100970.56;5014293;28;20445;-62
2022/12/13 10:36:14;;;;;;;37.57;23.90;;;;;;;-4.31;100.00;100971.88;5019707;28;20052;-62
2022/12/13 10:38:42;;;;;;;42.93;24.67;;;;;;;-4.28;100.00;100968.00;5012573;28;20044;-61
2022/12/13 10:41:33;;;;;;;40.80;25.47;;;;;;;-4.25;100.00;100964.88;5010044;28;20022;-62
2022/12/13 10:44:10;;;;;;;39.13;23.47;;;;;;;-4.19;100.00;100965.44;5003501;28;20547;-62
2022/12/13 10:46:38;;;;;;;39.10;24.67;;;;;;;-4.21;100.00;100961.91;5011433;28;20422;-61
2022/12/13 10:49:25;;;;;;;37.23;23.97;;;;;;;-4.18;100.00;100962.19;5011578;28;20049;-62
2022/12/13 10:51:53;;;;;;;38.00;24.10;;;;;;;-4.15;100.00;100961.56;5012078;28;20044;-62
2022/12/13 10:54:28;;;;;;;38.23;22.77;;;;;;;-4.12;100.00;100951.72;5011645;28;20121;-61
2022/12/13 10:56:59;;;;;;;33.67;23.17;;;;;;;-4.04;100.00;100947.34;5011262;28;20041;-62
2022/12/13 10:59:32;;;;;;;37.03;25.17;;;;;;;-3.95;100.00;100945.69;5012671;28;20621;-62
2022/12/13 11:01:58;;;;;;;38.03;24.23;;;;;;;-3.86;100.00;100940.56;5011442;28;20125;-61
2022/12/13 11:04:32;;;;;;;34.53;24.23;;;;;;;-3.80;100.00;100938.63;5016737;28;20108;-61
2022/12/13 11:07:00;;;;;;;33.10;22.00;;;;;;;-3.75;100.00;100923.81;5014660;28;20026;-62
2022/12/13 11:09:30;;;;;;;38.23;23.47;;;;;;;-3.60;100.00;100925.97;5019372;28;20033;-62
2022/12/13 11:12:01;;;;;;;36.97;22.50;;;;;;;-3.51;100.00;100919.22;5014287;28;20386;-62